sensor_id;sensor_type;location;lat;lon;timestamp;temperature;humidity
64869;DHT22;51349;52.424;10.840;2022-10-31T00:02:04;14.20;99.90
64869;DHT22;51349;52.424;10.840;2022-10-31T00:07:05;14.20;99.90
64869;DHT22;51349;52.424;10.840;2022-10-31T00:12:05;14.20;99.90
64869;DHT22;51349;52.424;10.840;2022-10-31T00:17:06;14.30;99.90
64869;DHT22;51349;52.424;10.840;2022-10-31T00:22:06;14.30;99.90
64869;DHT22;51349;52.424;10.840;2022-10-31T00:27:07;14.30;99.90
64869;DHT22;51349;52.424;10.840;2022-10-31T00:32:08;14.20;99.90
64869;DHT22;51349;52.424;10.840;2022-10-31T00:37:08;14.30;99.90
64869;DHT22;51349;52.424;10.840;2022-10-31T00:42:09;14.20;99.90
64869;DHT22;51349;52.424;10.840;2022-10-31T00:47:09;14.30;99.90
64869;DHT22;51349;52.424;10.840;2022-10-31T00:52:10;14.30;99.90
64869;DHT22;51349;52.424;10.840;2022-10-31T00:57:10;14.30;99.90
64869;DHT22;51349;52.424;10.840;2022-10-31T01:02:11;14.10;99.90
64869;DHT22;51349;52.424;10.840;2022-10-31T01:07:12;14.10;99.90
64869;DHT22;51349;52.424;10.840;2022-10-31T01:12:14;14.10;99.90
64869;DHT22;51349;52.424;10.840;2022-10-31T01:17:14;13.80;99.90
64869;DHT22;51349;52.424;10.840;2022-10-31T01:22:15;13.70;99.90
64869;DHT22;51349;52.424;10.840;2022-10-31T01:27:16;13.60;99.90
64869;DHT22;51349;52.424;10.840;2022-10-31T01:32:16;13.40;99.90
64869;DHT22;51349;52.424;10.840;2022-10-31T01:37:17;13.40;99.90
64869;DHT22;51349;52.424;10.840;2022-10-31T01:42:22;13.40;99.90
64869;DHT22;51349;52.424;10.840;2022-10-31T01:47:32;13.40;99.90
64869;DHT22;51349;52.424;10.840;2022-10-31T01:52:43;13.70;99.90
64869;DHT22;51349;52.424;10.840;2022-10-31T01:57:46;13.60;99.90
64869;DHT22;51349;52.424;10.840;2022-10-31T02:02:49;13.60;99.90
64869;DHT22;51349;52.424;10.840;2022-10-31T02:13:04;13.50;99.90
64869;DHT22;51349;52.424;10.840;2022-10-31T02:18:05;13.50;99.90
64869;DHT22;51349;52.424;10.840;2022-10-31T02:44:43;13.70;99.90
64869;DHT22;51349;52.424;10.840;2022-10-31T02:50:02;13.70;99.90
64869;DHT22;51349;52.424;10.840;2022-10-31T03:00:23;13.80;99.90
64869;DHT22;51349;52.424;10.840;2022-10-31T03:15:54;13.80;99.90
64869;DHT22;51349;52.424;10.840;2022-10-31T03:21:13;13.70;99.90
64869;DHT22;51349;52.424;10.840;2022-10-31T03:26:16;13.80;99.90
64869;DHT22;51349;52.424;10.840;2022-10-31T03:31:19;13.90;99.90
64869;DHT22;51349;52.424;10.840;2022-10-31T03:36:22;13.90;99.90
64869;DHT22;51349;52.424;10.840;2022-10-31T03:41:28;13.90;99.90
64869;DHT22;51349;52.424;10.840;2022-10-31T03:46:30;14.00;99.90
64869;DHT22;51349;52.424;10.840;2022-10-31T03:51:55;13.90;99.90
64869;DHT22;51349;52.424;10.840;2022-10-31T03:57:05;13.80;99.90
64869;DHT22;51349;52.424;10.840;2022-10-31T04:02:11;13.70;99.90
64869;DHT22;51349;52.424;10.840;2022-10-31T04:07:15;13.70;99.90
64869;DHT22;51349;52.424;10.840;2022-10-31T04:12:16;13.70;99.90
64869;DHT22;51349;52.424;10.840;2022-10-31T04:17:19;13.70;99.90
64869;DHT22;51349;52.424;10.840;2022-10-31T04:22:21;13.80;99.90
64869;DHT22;51349;52.424;10.840;2022-10-31T04:27:21;13.80;99.90
64869;DHT22;51349;52.424;10.840;2022-10-31T04:32:22;13.80;99.90
64869;DHT22;51349;52.424;10.840;2022-10-31T04:37:22;13.80;99.90
64869;DHT22;51349;52.424;10.840;2022-10-31T04:42:23;13.90;99.90
64869;DHT22;51349;52.424;10.840;2022-10-31T04:47:24;13.90;99.90
64869;DHT22;51349;52.424;10.840;2022-10-31T04:52:24;13.80;99.90
64869;DHT22;51349;52.424;10.840;2022-10-31T04:57:25;13.90;99.90
64869;DHT22;51349;52.424;10.840;2022-10-31T05:02:25;13.90;99.90
64869;DHT22;51349;52.424;10.840;2022-10-31T05:07:26;13.90;99.90
64869;DHT22;51349;52.424;10.840;2022-10-31T05:12:26;13.90;99.90
64869;DHT22;51349;52.424;10.840;2022-10-31T05:17:27;13.90;99.90
64869;DHT22;51349;52.424;10.840;2022-10-31T05:22:27;13.90;99.90
64869;DHT22;51349;52.424;10.840;2022-10-31T05:27:28;14.00;99.90
64869;DHT22;51349;52.424;10.840;2022-10-31T05:32:29;13.90;99.90
64869;DHT22;51349;52.424;10.840;2022-10-31T05:37:30;14.00;99.90
64869;DHT22;51349;52.424;10.840;2022-10-31T05:42:33;14.00;99.90
64869;DHT22;51349;52.424;10.840;2022-10-31T05:47:34;14.00;99.90
64869;DHT22;51349;52.424;10.840;2022-10-31T05:52:35;14.00;99.90
64869;DHT22;51349;52.424;10.840;2022-10-31T05:57:36;14.00;99.90
64869;DHT22;51349;52.424;10.840;2022-10-31T06:02:36;13.90;99.90
64869;DHT22;51349;52.424;10.840;2022-10-31T06:07:37;13.90;99.90
64869;DHT22;51349;52.424;10.840;2022-10-31T06:12:38;13.80;99.90
64869;DHT22;51349;52.424;10.840;2022-10-31T06:17:38;13.60;99.90
64869;DHT22;51349;52.424;10.840;2022-10-31T06:22:39;13.50;99.90
64869;DHT22;51349;52.424;10.840;2022-10-31T06:27:43;13.30;99.90
64869;DHT22;51349;52.424;10.840;2022-10-31T06:32:44;13.20;99.90
64869;DHT22;51349;52.424;10.840;2022-10-31T06:37:52;13.20;99.90
64869;DHT22;51349;52.424;10.840;2022-10-31T06:43:00;13.10;99.90
64869;DHT22;51349;52.424;10.840;2022-10-31T06:48:00;13.10;99.90
64869;DHT22;51349;52.424;10.840;2022-10-31T06:53:01;13.10;99.90
64869;DHT22;51349;52.424;10.840;2022-10-31T06:58:02;13.20;99.90
64869;DHT22;51349;52.424;10.840;2022-10-31T07:03:25;13.30;99.90
64869;DHT22;51349;52.424;10.840;2022-10-31T07:08:25;13.30;99.90
64869;DHT22;51349;52.424;10.840;2022-10-31T07:13:26;13.40;99.90
64869;DHT22;51349;52.424;10.840;2022-10-31T07:18:27;13.40;99.90
64869;DHT22;51349;52.424;10.840;2022-10-31T07:23:28;13.60;99.90
64869;DHT22;51349;52.424;10.840;2022-10-31T07:28:28;13.60;99.90
64869;DHT22;51349;52.424;10.840;2022-10-31T07:33:29;13.70;99.90
64869;DHT22;51349;52.424;10.840;2022-10-31T07:38:29;13.90;99.90
64869;DHT22;51349;52.424;10.840;2022-10-31T07:43:30;13.90;99.90
64869;DHT22;51349;52.424;10.840;2022-10-31T07:48:31;14.00;99.90
64869;DHT22;51349;52.424;10.840;2022-10-31T07:53:31;14.10;99.90
64869;DHT22;51349;52.424;10.840;2022-10-31T07:58:32;14.20;99.90
64869;DHT22;51349;52.424;10.840;2022-10-31T08:03:32;14.40;99.90
64869;DHT22;51349;52.424;10.840;2022-10-31T08:08:33;14.60;99.90
64869;DHT22;51349;52.424;10.840;2022-10-31T08:13:34;14.60;99.90
64869;DHT22;51349;52.424;10.840;2022-10-31T08:18:34;14.70;99.90
64869;DHT22;51349;52.424;10.840;2022-10-31T08:23:38;14.80;99.90
64869;DHT22;51349;52.424;10.840;2022-10-31T08:28:38;14.80;99.90
64869;DHT22;51349;52.424;10.840;2022-10-31T08:33:39;14.70;99.90
64869;DHT22;51349;52.424;10.840;2022-10-31T08:38:39;14.90;99.90
64869;DHT22;51349;52.424;10.840;2022-10-31T08:43:40;15.00;99.90
64869;DHT22;51349;52.424;10.840;2022-10-31T08:48:41;14.80;99.90
64869;DHT22;51349;52.424;10.840;2022-10-31T08:53:41;14.90;99.90
64869;DHT22;51349;52.424;10.840;2022-10-31T08:58:42;15.00;99.90
64869;DHT22;51349;52.424;10.840;2022-10-31T09:03:42;15.40;99.90
64869;DHT22;51349;52.424;10.840;2022-10-31T09:08:43;15.20;99.90
64869;DHT22;51349;52.424;10.840;2022-10-31T09:13:43;15.70;99.90
64869;DHT22;51349;52.424;10.840;2022-10-31T09:18:44;16.00;99.90
64869;DHT22;51349;52.424;10.840;2022-10-31T09:23:45;16.00;99.90
64869;DHT22;51349;52.424;10.840;2022-10-31T09:28:45;16.30;99.90
64869;DHT22;51349;52.424;10.840;2022-10-31T09:33:46;16.60;99.90
64869;DHT22;51349;52.424;10.840;2022-10-31T09:38:47;17.00;99.90
64869;DHT22;51349;52.424;10.840;2022-10-31T09:44:00;17.80;99.90
64869;DHT22;51349;52.424;10.840;2022-10-31T09:49:24;18.50;99.90
64869;DHT22;51349;52.424;10.840;2022-10-31T09:54:48;18.80;99.90
64869;DHT22;51349;52.424;10.840;2022-10-31T09:59:50;19.80;99.90
64869;DHT22;51349;52.424;10.840;2022-10-31T10:05:11;20.90;99.90
64869;DHT22;51349;52.424;10.840;2022-10-31T10:21:16;22.60;99.90
64869;DHT22;51349;52.424;10.840;2022-10-31T10:26:22;23.10;99.90
64869;DHT22;51349;52.424;10.840;2022-10-31T10:31:32;23.80;99.90
64869;DHT22;51349;52.424;10.840;2022-10-31T10:41:49;24.00;99.90
64869;DHT22;51349;52.424;10.840;2022-10-31T10:47:08;24.70;99.90
64869;DHT22;51349;52.424;10.840;2022-10-31T10:57:45;25.30;99.90
64869;DHT22;51349;52.424;10.840;2022-10-31T11:02:50;24.00;99.90
64869;DHT22;51349;52.424;10.840;2022-10-31T11:07:50;24.40;99.90
64869;DHT22;51349;52.424;10.840;2022-10-31T11:13:05;23.90;99.90
64869;DHT22;51349;52.424;10.840;2022-10-31T11:18:27;25.00;99.90
64869;DHT22;51349;52.424;10.840;2022-10-31T11:23:28;24.90;99.90
64869;DHT22;51349;52.424;10.840;2022-10-31T11:28:31;25.70;99.90
64869;DHT22;51349;52.424;10.840;2022-10-31T11:33:44;25.10;99.90
64869;DHT22;51349;52.424;10.840;2022-10-31T11:38:46;25.50;99.90
64869;DHT22;51349;52.424;10.840;2022-10-31T11:43:53;24.40;99.90
64869;DHT22;51349;52.424;10.840;2022-10-31T11:48:54;25.20;99.90
64869;DHT22;51349;52.424;10.840;2022-10-31T11:53:58;25.30;99.90
64869;DHT22;51349;52.424;10.840;2022-10-31T11:59:02;25.20;99.90
64869;DHT22;51349;52.424;10.840;2022-10-31T12:04:09;24.90;99.90
64869;DHT22;51349;52.424;10.840;2022-10-31T12:20:10;23.90;99.90
64869;DHT22;51349;52.424;10.840;2022-10-31T12:46:26;22.60;99.90
64869;DHT22;51349;52.424;10.840;2022-10-31T12:51:53;21.70;99.90
64869;DHT22;51349;52.424;10.840;2022-10-31T13:07:41;20.30;99.90
64869;DHT22;51349;52.424;10.840;2022-10-31T13:12:45;20.30;99.90
64869;DHT22;51349;52.424;10.840;2022-10-31T13:17:53;19.80;99.90
64869;DHT22;51349;52.424;10.840;2022-10-31T13:23:11;19.40;99.90
64869;DHT22;51349;52.424;10.840;2022-10-31T13:33:55;19.20;99.90
64869;DHT22;51349;52.424;10.840;2022-10-31T13:39:10;18.80;99.90
64869;DHT22;51349;52.424;10.840;2022-10-31T13:44:15;18.90;99.90
64869;DHT22;51349;52.424;10.840;2022-10-31T13:49:37;18.70;99.90
64869;DHT22;51349;52.424;10.840;2022-10-31T13:54:46;18.70;99.90
64869;DHT22;51349;52.424;10.840;2022-10-31T13:59:53;18.40;99.90
64869;DHT22;51349;52.424;10.840;2022-10-31T14:05:04;18.20;99.90
64869;DHT22;51349;52.424;10.840;2022-10-31T14:10:30;18.10;99.90
64869;DHT22;51349;52.424;10.840;2022-10-31T14:15:29;18.10;99.90
64869;DHT22;51349;52.424;10.840;2022-10-31T14:20:40;17.70;99.90
64869;DHT22;51349;52.424;10.840;2022-10-31T14:25:41;17.70;99.90
64869;DHT22;51349;52.424;10.840;2022-10-31T14:30:51;17.40;99.90
64869;DHT22;51349;52.424;10.840;2022-10-31T14:41:58;17.00;99.90
64869;DHT22;51349;52.424;10.840;2022-10-31T14:52:18;16.90;99.90
64869;DHT22;51349;52.424;10.840;2022-10-31T14:57:23;16.70;99.90
64869;DHT22;51349;52.424;10.840;2022-10-31T15:02:27;16.60;99.90
64869;DHT22;51349;52.424;10.840;2022-10-31T15:07:29;16.60;99.90
64869;DHT22;51349;52.424;10.840;2022-10-31T15:12:32;16.60;99.90
64869;DHT22;51349;52.424;10.840;2022-10-31T15:17:33;16.40;99.90
64869;DHT22;51349;52.424;10.840;2022-10-31T15:22:34;16.30;99.90
64869;DHT22;51349;52.424;10.840;2022-10-31T15:27:35;16.20;99.90
64869;DHT22;51349;52.424;10.840;2022-10-31T15:32:36;16.10;99.90
64869;DHT22;51349;52.424;10.840;2022-10-31T15:37:36;16.10;99.90
64869;DHT22;51349;52.424;10.840;2022-10-31T15:42:40;16.00;99.90
64869;DHT22;51349;52.424;10.840;2022-10-31T15:48:12;15.90;99.90
64869;DHT22;51349;52.424;10.840;2022-10-31T15:53:26;15.80;99.90
64869;DHT22;51349;52.424;10.840;2022-10-31T15:58:27;15.60;99.90
64869;DHT22;51349;52.424;10.840;2022-10-31T16:03:31;15.40;99.90
64869;DHT22;51349;52.424;10.840;2022-10-31T16:08:34;15.50;99.90
64869;DHT22;51349;52.424;10.840;2022-10-31T16:13:38;15.40;99.90
64869;DHT22;51349;52.424;10.840;2022-10-31T16:18:41;15.30;99.90
64869;DHT22;51349;52.424;10.840;2022-10-31T16:23:47;15.00;99.90
64869;DHT22;51349;52.424;10.840;2022-10-31T16:28:58;15.00;99.90
64869;DHT22;51349;52.424;10.840;2022-10-31T16:34:19;14.80;99.90
64869;DHT22;51349;52.424;10.840;2022-10-31T16:39:20;14.90;99.90
64869;DHT22;51349;52.424;10.840;2022-10-31T16:44:23;14.80;99.90
64869;DHT22;51349;52.424;10.840;2022-10-31T16:49:24;14.70;99.90
64869;DHT22;51349;52.424;10.840;2022-10-31T16:54:24;14.80;99.90
64869;DHT22;51349;52.424;10.840;2022-10-31T16:59:26;14.80;99.90
64869;DHT22;51349;52.424;10.840;2022-10-31T17:04:27;14.70;99.90
64869;DHT22;51349;52.424;10.840;2022-10-31T17:09:31;14.80;99.90
64869;DHT22;51349;52.424;10.840;2022-10-31T17:14:32;14.80;99.90
64869;DHT22;51349;52.424;10.840;2022-10-31T17:19:34;14.60;99.90
64869;DHT22;51349;52.424;10.840;2022-10-31T17:24:34;14.70;99.90
64869;DHT22;51349;52.424;10.840;2022-10-31T17:29:35;14.60;99.90
64869;DHT22;51349;52.424;10.840;2022-10-31T17:34:35;14.70;99.90
64869;DHT22;51349;52.424;10.840;2022-10-31T17:39:36;14.80;99.90
64869;DHT22;51349;52.424;10.840;2022-10-31T17:44:36;14.70;99.90
64869;DHT22;51349;52.424;10.840;2022-10-31T17:49:37;14.70;99.90
64869;DHT22;51349;52.424;10.840;2022-10-31T17:54:38;14.50;99.90
64869;DHT22;51349;52.424;10.840;2022-10-31T17:59:41;14.50;99.90
64869;DHT22;51349;52.424;10.840;2022-10-31T18:04:42;14.60;99.90
64869;DHT22;51349;52.424;10.840;2022-10-31T18:09:43;14.50;99.90
64869;DHT22;51349;52.424;10.840;2022-10-31T18:14:43;14.50;99.90
64869;DHT22;51349;52.424;10.840;2022-10-31T18:19:46;14.50;99.90
64869;DHT22;51349;52.424;10.840;2022-10-31T18:24:47;14.50;99.90
64869;DHT22;51349;52.424;10.840;2022-10-31T18:29:48;14.50;99.90
64869;DHT22;51349;52.424;10.840;2022-10-31T18:34:48;14.40;99.90
64869;DHT22;51349;52.424;10.840;2022-10-31T18:39:49;14.40;99.90
64869;DHT22;51349;52.424;10.840;2022-10-31T18:44:50;14.50;99.90
64869;DHT22;51349;52.424;10.840;2022-10-31T18:49:50;14.40;99.90
64869;DHT22;51349;52.424;10.840;2022-10-31T18:54:51;14.30;99.90
64869;DHT22;51349;52.424;10.840;2022-10-31T18:59:52;14.40;99.90
64869;DHT22;51349;52.424;10.840;2022-10-31T19:04:52;14.40;99.90
64869;DHT22;51349;52.424;10.840;2022-10-31T19:09:53;14.40;99.90
64869;DHT22;51349;52.424;10.840;2022-10-31T19:14:53;14.30;99.90
64869;DHT22;51349;52.424;10.840;2022-10-31T19:19:54;14.30;99.90
64869;DHT22;51349;52.424;10.840;2022-10-31T19:24:55;14.20;99.90
64869;DHT22;51349;52.424;10.840;2022-10-31T19:29:55;14.20;99.90
64869;DHT22;51349;52.424;10.840;2022-10-31T19:34:56;14.30;99.90
64869;DHT22;51349;52.424;10.840;2022-10-31T19:39:57;14.40;99.90
64869;DHT22;51349;52.424;10.840;2022-10-31T19:44:58;14.30;99.90
64869;DHT22;51349;52.424;10.840;2022-10-31T19:49:58;14.30;99.90
64869;DHT22;51349;52.424;10.840;2022-10-31T19:54:59;14.30;99.90
64869;DHT22;51349;52.424;10.840;2022-10-31T20:00:00;14.30;99.90
64869;DHT22;51349;52.424;10.840;2022-10-31T20:05:00;14.30;99.90
64869;DHT22;51349;52.424;10.840;2022-10-31T20:10:01;14.30;99.90
64869;DHT22;51349;52.424;10.840;2022-10-31T20:15:01;14.30;99.90
64869;DHT22;51349;52.424;10.840;2022-10-31T20:20:02;14.40;99.90
64869;DHT22;51349;52.424;10.840;2022-10-31T20:25:11;14.30;99.90
64869;DHT22;51349;52.424;10.840;2022-10-31T20:30:12;14.30;99.90
64869;DHT22;51349;52.424;10.840;2022-10-31T20:35:13;14.20;99.90
64869;DHT22;51349;52.424;10.840;2022-10-31T20:40:16;14.20;99.90
64869;DHT22;51349;52.424;10.840;2022-10-31T20:45:17;14.10;99.90
64869;DHT22;51349;52.424;10.840;2022-10-31T20:50:18;14.10;99.90
64869;DHT22;51349;52.424;10.840;2022-10-31T20:55:18;14.10;99.90
64869;DHT22;51349;52.424;10.840;2022-10-31T21:00:19;14.10;99.90
64869;DHT22;51349;52.424;10.840;2022-10-31T21:05:20;14.10;99.90
64869;DHT22;51349;52.424;10.840;2022-10-31T21:10:20;14.10;99.90
64869;DHT22;51349;52.424;10.840;2022-10-31T21:15:21;14.00;99.90
64869;DHT22;51349;52.424;10.840;2022-10-31T21:20:25;14.00;99.90
64869;DHT22;51349;52.424;10.840;2022-10-31T21:25:28;14.00;99.90
64869;DHT22;51349;52.424;10.840;2022-10-31T21:30:29;14.00;99.90
64869;DHT22;51349;52.424;10.840;2022-10-31T21:35:29;14.00;99.90
64869;DHT22;51349;52.424;10.840;2022-10-31T21:40:30;14.00;99.90
64869;DHT22;51349;52.424;10.840;2022-10-31T21:45:33;14.00;99.90
64869;DHT22;51349;52.424;10.840;2022-10-31T21:50:34;14.00;99.90
64869;DHT22;51349;52.424;10.840;2022-10-31T21:55:34;14.00;99.90
64869;DHT22;51349;52.424;10.840;2022-10-31T22:00:35;14.00;99.90
64869;DHT22;51349;52.424;10.840;2022-10-31T22:05:36;14.00;99.90
64869;DHT22;51349;52.424;10.840;2022-10-31T22:10:36;14.00;99.90
64869;DHT22;51349;52.424;10.840;2022-10-31T22:15:37;14.00;99.90
64869;DHT22;51349;52.424;10.840;2022-10-31T22:20:37;14.00;99.90
64869;DHT22;51349;52.424;10.840;2022-10-31T22:25:38;13.90;99.90
64869;DHT22;51349;52.424;10.840;2022-10-31T22:30:39;13.90;99.90
64869;DHT22;51349;52.424;10.840;2022-10-31T22:35:39;13.90;99.90
64869;DHT22;51349;52.424;10.840;2022-10-31T22:40:40;13.90;99.90
64869;DHT22;51349;52.424;10.840;2022-10-31T22:45:40;13.80;99.90
64869;DHT22;51349;52.424;10.840;2022-10-31T22:50:41;13.80;99.90
64869;DHT22;51349;52.424;10.840;2022-10-31T22:55:41;13.80;99.90
64869;DHT22;51349;52.424;10.840;2022-10-31T23:00:42;13.80;99.90
64869;DHT22;51349;52.424;10.840;2022-10-31T23:05:43;13.80;99.90
64869;DHT22;51349;52.424;10.840;2022-10-31T23:10:43;13.80;99.90
64869;DHT22;51349;52.424;10.840;2022-10-31T23:15:44;13.80;99.90
64869;DHT22;51349;52.424;10.840;2022-10-31T23:20:52;13.80;99.90
64869;DHT22;51349;52.424;10.840;2022-10-31T23:25:53;13.80;99.90
64869;DHT22;51349;52.424;10.840;2022-10-31T23:31:12;13.80;99.90
64869;DHT22;51349;52.424;10.840;2022-10-31T23:36:13;13.80;99.90
64869;DHT22;51349;52.424;10.840;2022-10-31T23:41:17;13.80;99.90
64869;DHT22;51349;52.424;10.840;2022-10-31T23:46:18;13.80;99.90
64869;DHT22;51349;52.424;10.840;2022-10-31T23:51:18;13.70;99.90
64869;DHT22;51349;52.424;10.840;2022-10-31T23:56:19;13.70;99.90
